Cooper, South Dakota
Current Conditions -  °F | °C
As of 1:55 PM on Tuesday 21 Oct 2014 (Local Time) from KPHP Reporting Station
Clear Clear  
Wind Chill: 82°   Ceiling: Unl
Heat Index: 82°   Visibility: 10mi
Dew Point: 48°   Wind: 20mph
Humidity: 30%   Direction: 190°S
Pressure: 29.74"   Gusts: 26mph
Location:  44.8511°N, 102.128°W
Report Text: KPHP 211955Z AUTO 19017G23KT 10SM CLR 28/09 A2974 RMK AO2 SLP058 T02780089
Loading
Personal Weather Stations






























Interactive Weather Map
Tropical Storm Tracking
New forecast layout! Learn more

10-Day Weather Forecast

Advertisements
Track Severe Weather on mobile